createdAt,value
2022-08-11T00:01:00.063Z,57.10
2022-08-11T00:03:26.433Z,57.09
2022-08-11T00:06:09.821Z,56.83
2022-08-11T00:08:36.174Z,56.90
2022-08-11T00:11:04.159Z,56.95
2022-08-11T00:13:32.137Z,57.02
2022-08-11T00:15:58.494Z,57.02
2022-08-11T00:18:24.841Z,56.99
2022-08-11T00:20:51.190Z,57.03
2022-08-11T00:23:18.333Z,56.97
2022-08-11T00:25:46.995Z,57.14
2022-08-11T00:28:27.055Z,57.04
2022-08-11T00:30:53.976Z,57.05
2022-08-11T00:33:20.525Z,57.06
2022-08-11T00:36:07.136Z,56.85
2022-08-11T00:38:34.549Z,57.11
2022-08-11T00:41:11.754Z,56.95
2022-08-11T00:43:45.565Z,57.11
2022-08-11T00:46:14.300Z,56.95
2022-08-11T00:48:59.160Z,56.95
2022-08-11T00:52:02.155Z,56.91
2022-08-11T00:54:33.147Z,57.00
2022-08-11T00:57:36.194Z,57.14
2022-08-11T01:00:15.990Z,56.85
2022-08-11T01:03:00.963Z,56.79
2022-08-11T01:05:49.099Z,56.96
2022-08-11T01:08:30.007Z,56.80
2022-08-11T01:11:06.163Z,56.97
2022-08-11T01:13:46.776Z,56.92
2022-08-11T01:16:19.524Z,56.84
2022-08-11T01:18:54.555Z,56.87
2022-08-11T01:21:35.826Z,56.70
2022-08-11T01:24:21.016Z,56.36
2022-08-11T01:27:02.765Z,56.24
2022-08-11T01:29:49.059Z,56.53
2022-08-11T01:32:15.952Z,56.37
2022-08-11T01:34:54.443Z,56.11
2022-08-11T01:37:38.790Z,56.02
2022-08-11T01:40:15.027Z,55.97
2022-08-11T01:43:13.476Z,56.07
2022-08-11T01:45:44.385Z,55.97
2022-08-11T01:48:22.604Z,55.98
2022-08-11T01:51:01.043Z,55.83
2022-08-11T01:53:33.053Z,55.83
2022-08-11T01:56:19.594Z,55.70
2022-08-11T01:59:09.611Z,55.32
2022-08-11T02:01:35.882Z,55.15
2022-08-11T02:04:19.591Z,55.35
2022-08-11T02:06:56.641Z,55.09
2022-08-11T02:09:28.828Z,55.25
2022-08-11T02:11:58.527Z,55.29
2022-08-11T02:14:27.809Z,55.15
2022-08-11T02:17:05.325Z,55.02
2022-08-11T02:19:58.018Z,55.05
2022-08-11T02:23:01.399Z,55.03
2022-08-11T02:25:46.370Z,54.99
2022-08-11T02:28:17.779Z,54.86
2022-08-11T02:32:04.794Z,54.60
2022-08-11T02:34:08.919Z,54.83
2022-08-11T02:36:53.847Z,54.63
2022-08-11T02:39:20.234Z,54.78
2022-08-11T02:42:33.424Z,54.74
2022-08-11T02:45:12.857Z,54.65
2022-08-11T02:48:10.415Z,54.39
2022-08-11T02:50:41.287Z,54.37
2022-08-11T02:53:11.280Z,54.28
2022-08-11T02:55:56.748Z,54.22
2022-08-11T02:58:27.137Z,54.17
2022-08-11T03:00:57.140Z,54.15
2022-08-11T03:03:39.163Z,54.29
2022-08-11T03:06:12.677Z,54.18
2022-08-11T03:08:51.194Z,54.09
2022-08-11T03:11:48.607Z,54.08
2022-08-11T03:14:35.658Z,54.12
2022-08-11T03:17:10.971Z,54.08
2022-08-11T03:19:44.049Z,53.86
2022-08-11T03:22:17.914Z,53.90
2022-08-11T03:24:56.402Z,54.15
2022-08-11T03:27:28.010Z,53.93
2022-08-11T03:30:14.182Z,54.08
2022-08-11T03:32:42.495Z,54.00
2022-08-11T03:35:09.337Z,53.72
2022-08-11T03:37:51.772Z,53.95
2022-08-11T03:40:51.189Z,54.06
2022-08-11T03:43:21.050Z,54.04
2022-08-11T03:45:57.240Z,53.81
2022-08-11T03:48:37.722Z,53.81
2022-08-11T03:51:20.101Z,53.82
2022-08-11T03:53:55.779Z,53.70
2022-08-11T03:56:26.947Z,53.45
2022-08-11T03:59:16.072Z,53.80
2022-08-11T04:01:49.878Z,53.54
2022-08-11T04:04:21.142Z,53.60
2022-08-11T04:06:59.753Z,53.82
2022-08-11T04:09:46.379Z,53.88
2022-08-11T04:12:36.150Z,53.94
2022-08-11T04:15:41.038Z,53.65
2022-08-11T04:18:18.357Z,53.92
2022-08-11T04:20:52.813Z,53.43
2022-08-11T04:24:37.066Z,53.61
2022-08-11T04:26:21.188Z,53.39
2022-08-11T04:29:02.530Z,53.57
2022-08-11T04:31:50.884Z,53.60
2022-08-11T04:34:25.630Z,53.64
2022-08-11T04:37:22.997Z,53.48
2022-08-11T04:39:52.098Z,53.26
2022-08-11T04:42:56.010Z,53.28
2022-08-11T04:45:22.281Z,53.61
2022-08-11T04:48:10.410Z,53.28
2022-08-11T04:51:09.433Z,53.09
2022-08-11T04:54:10.706Z,53.14
2022-08-11T04:56:55.584Z,53.30
2022-08-11T04:59:52.870Z,53.51
2022-08-11T05:02:19.242Z,53.34
2022-08-11T05:05:08.165Z,53.42
2022-08-11T05:07:53.599Z,53.36
2022-08-11T05:10:24.096Z,53.56
2022-08-11T05:12:55.346Z,53.67
2022-08-11T05:15:44.738Z,53.47
2022-08-11T05:18:33.740Z,53.53
2022-08-11T05:21:21.650Z,53.72
2022-08-11T05:24:07.657Z,53.59
2022-08-11T05:27:02.911Z,53.65
2022-08-11T05:29:55.127Z,53.43
2022-08-11T05:32:40.338Z,53.52
2022-08-11T05:35:07.664Z,53.45
2022-08-11T05:37:35.046Z,53.48
2022-08-11T05:40:29.688Z,53.65
2022-08-11T05:43:18.713Z,53.67
2022-08-11T05:46:06.243Z,53.69
2022-08-11T05:48:53.911Z,53.78
2022-08-11T05:51:39.265Z,53.52
2022-08-11T05:54:37.175Z,53.63
2022-08-11T05:57:04.893Z,53.91
2022-08-11T05:59:31.261Z,53.61
2022-08-11T06:02:04.757Z,53.81
2022-08-11T06:04:31.225Z,53.86
2022-08-11T06:06:58.308Z,53.85
2022-08-11T06:09:28.467Z,53.50
2022-08-11T06:11:56.427Z,53.56
2022-08-11T06:14:22.794Z,53.66
2022-08-11T06:16:49.623Z,53.57
2022-08-11T06:19:16.322Z,53.60
2022-08-11T06:21:45.791Z,53.57
2022-08-11T06:24:12.633Z,53.56
2022-08-11T06:26:55.176Z,53.27
2022-08-11T06:29:37.855Z,53.31
2022-08-11T06:32:13.806Z,53.40
2022-08-11T06:34:50.415Z,53.24
2022-08-11T06:37:18.981Z,53.45
2022-08-11T06:39:47.960Z,53.32
2022-08-11T06:42:16.232Z,53.33
2022-08-11T06:44:53.662Z,53.21
2022-08-11T06:47:20.587Z,53.27
2022-08-11T06:50:05.671Z,53.22
2022-08-11T06:52:35.713Z,53.43
2022-08-11T06:55:55.707Z,53.39
2022-08-11T06:58:15.922Z,53.37
2022-08-11T07:00:42.278Z,53.43
2022-08-11T07:03:10.707Z,53.48
2022-08-11T07:05:43.637Z,53.30
2022-08-11T07:08:40.759Z,53.60
2022-08-11T07:11:28.630Z,53.64
2022-08-11T07:14:13.594Z,53.68
2022-08-11T07:16:40.509Z,53.47
2022-08-11T07:19:26.139Z,53.63
2022-08-11T07:22:11.039Z,53.66
2022-08-11T07:25:02.672Z,53.76
2022-08-11T07:27:54.937Z,53.57
2022-08-11T07:30:21.324Z,53.68
2022-08-11T07:32:51.113Z,53.43
2022-08-11T07:35:17.980Z,53.65
2022-08-11T07:37:45.547Z,53.56
2022-08-11T07:40:11.922Z,53.68
2022-08-11T07:42:38.543Z,53.46
2022-08-11T07:45:24.132Z,53.51
2022-08-11T07:48:09.430Z,53.51
2022-08-11T07:50:59.313Z,53.66
2022-08-11T07:53:25.996Z,53.68
2022-08-11T07:55:53.637Z,53.46
2022-08-11T07:58:44.962Z,53.66
2022-08-11T08:01:31.327Z,53.66
2022-08-11T08:04:17.457Z,53.40
2022-08-11T08:07:02.343Z,53.51
2022-08-11T08:09:47.157Z,53.56
2022-08-11T08:12:32.242Z,53.72
2022-08-11T08:15:17.242Z,53.63
2022-08-11T08:18:09.568Z,53.71
2022-08-11T08:20:40.269Z,53.77
2022-08-11T08:23:06.625Z,53.83
2022-08-11T08:25:33.877Z,53.89
2022-08-11T08:28:00.945Z,53.86
2022-08-11T08:30:46.668Z,53.67
2022-08-11T08:33:26.494Z,53.71
2022-08-11T08:36:11.374Z,53.60
2022-08-11T08:38:47.483Z,53.77
2022-08-11T08:41:16.449Z,53.67
2022-08-11T08:43:49.368Z,53.74
2022-08-11T08:46:15.900Z,53.73
2022-08-11T08:48:42.250Z,53.83
2022-08-11T08:51:28.885Z,53.77
2022-08-11T08:54:19.409Z,53.81
2022-08-11T08:56:46.131Z,53.50
2022-08-11T08:59:13.166Z,53.78
2022-08-11T09:01:50.591Z,53.84
2022-08-11T09:04:20.921Z,53.67
2022-08-11T09:06:51.604Z,53.57
2022-08-11T09:09:18.854Z,53.55
2022-08-11T09:11:51.371Z,53.79
2022-08-11T09:14:17.955Z,53.76
2022-08-11T09:16:44.336Z,53.51
2022-08-11T09:19:10.699Z,53.34
2022-08-11T09:21:49.020Z,53.63
2022-08-11T09:24:35.171Z,53.69
2022-08-11T09:27:04.386Z,53.67
2022-08-11T09:29:30.773Z,53.60
2022-08-11T09:31:57.176Z,53.30
2022-08-11T09:34:23.644Z,53.45
2022-08-11T09:37:08.880Z,53.44
2022-08-11T09:39:54.725Z,53.45
2022-08-11T09:42:23.475Z,53.51
2022-08-11T09:44:50.668Z,53.45
2022-08-11T09:47:21.432Z,53.49
2022-08-11T09:49:48.897Z,53.60
2022-08-11T09:52:15.269Z,53.67
2022-08-11T09:54:42.003Z,53.39
2022-08-11T09:57:27.138Z,53.36
2022-08-11T09:59:53.534Z,53.50
2022-08-11T10:02:41.061Z,53.47
2022-08-11T10:05:26.170Z,53.66
2022-08-11T10:07:52.585Z,53.85
2022-08-11T10:10:22.711Z,53.86
2022-08-11T10:12:56.029Z,53.55
2022-08-11T10:15:34.193Z,53.77
2022-08-11T10:18:21.806Z,53.72
2022-08-11T10:20:51.501Z,53.97
2022-08-11T10:23:36.435Z,54.16
2022-08-11T10:26:44.773Z,54.39
2022-08-11T10:29:35.910Z,54.82
2022-08-11T10:32:22.594Z,55.13
2022-08-11T10:34:56.353Z,55.47
2022-08-11T10:37:24.511Z,55.49
2022-08-11T10:40:15.631Z,55.31
2022-08-11T10:43:01.059Z,55.57
2022-08-11T10:45:46.461Z,55.89
2022-08-11T10:48:15.533Z,55.96
2022-08-11T10:51:05.050Z,55.93
2022-08-11T10:53:49.736Z,56.13
2022-08-11T10:56:35.463Z,56.43
2022-08-11T10:59:03.994Z,56.49
2022-08-11T11:01:31.998Z,56.22
2022-08-11T11:03:59.164Z,56.05
2022-08-11T11:06:29.841Z,56.42
2022-08-11T11:09:03.359Z,56.05
2022-08-11T11:11:50.085Z,56.54
2022-08-11T11:15:00.371Z,56.50
2022-08-11T11:17:46.558Z,56.65
2022-08-11T11:20:34.736Z,56.39
2022-08-11T11:23:01.915Z,56.29
2022-08-11T11:26:06.263Z,56.19
2022-08-11T11:28:32.541Z,56.08
2022-08-11T11:31:03.308Z,56.24
2022-08-11T11:34:06.489Z,56.16
2022-08-11T11:36:32.518Z,56.28
2022-08-11T11:38:58.973Z,56.13
2022-08-11T11:41:25.357Z,56.17
2022-08-11T11:43:55.225Z,55.97
2022-08-11T11:46:21.593Z,56.16
2022-08-11T11:48:47.963Z,56.06
2022-08-11T11:51:14.335Z,55.71
2022-08-11T11:53:45.357Z,56.05
2022-08-11T11:56:11.730Z,55.77
2022-08-11T11:58:57.067Z,55.69
2022-08-11T12:01:25.329Z,55.99
2022-08-11T12:03:52.157Z,56.03
2022-08-11T12:06:21.292Z,55.94
2022-08-11T12:08:48.365Z,55.72
2022-08-11T12:11:33.503Z,55.87
2022-08-11T12:14:00.756Z,55.96
2022-08-11T12:16:33.573Z,55.86
2022-08-11T12:19:02.823Z,55.78
2022-08-11T12:21:29.348Z,55.83
2022-08-11T12:24:15.132Z,55.53
2022-08-11T12:27:16.222Z,55.77
2022-08-11T12:29:45.209Z,55.49
2022-08-11T12:32:11.699Z,55.70
2022-08-11T12:34:38.107Z,55.83
2022-08-11T12:37:12.911Z,55.48
2022-08-11T12:40:12.905Z,55.79
2022-08-11T12:43:20.738Z,55.27
2022-08-11T12:45:48.153Z,55.60
2022-08-11T12:49:00.920Z,55.29
2022-08-11T12:52:11.848Z,55.65
2022-08-11T12:54:29.107Z,55.66
2022-08-11T12:57:17.154Z,55.29
2022-08-11T13:00:21.622Z,55.23
2022-08-11T13:03:06.597Z,55.59
2022-08-11T13:05:33.166Z,55.32
2022-08-11T13:08:06.867Z,55.46
2022-08-11T13:10:51.874Z,55.55
2022-08-11T13:13:54.661Z,55.40
2022-08-11T13:16:05.334Z,55.42
2022-08-11T13:18:31.716Z,55.38
2022-08-11T13:20:58.110Z,55.50
2022-08-11T13:23:24.607Z,55.45
2022-08-11T13:25:51.703Z,55.43
2022-08-11T13:28:18.522Z,55.48
2022-08-11T13:31:16.941Z,55.51
2022-08-11T13:33:46.585Z,55.12
2022-08-11T13:36:15.906Z,55.29
2022-08-11T13:38:44.489Z,55.39
2022-08-11T13:41:33.119Z,55.10
2022-08-11T13:43:59.723Z,55.14
2022-08-11T13:46:29.030Z,55.40
2022-08-11T13:49:00.446Z,55.42
2022-08-11T13:51:34.311Z,55.46
2022-08-11T13:54:03.064Z,55.46
2022-08-11T13:56:29.524Z,55.45
2022-08-11T13:58:56.273Z,55.17
2022-08-11T14:02:21.495Z,55.36
2022-08-11T14:04:30.470Z,55.39
2022-08-11T14:07:00.835Z,55.33
2022-08-11T14:09:28.101Z,55.33
2022-08-11T14:12:24.532Z,55.09
2022-08-11T14:14:52.402Z,55.33
2022-08-11T14:17:37.239Z,55.35
2022-08-11T14:20:37.933Z,55.40
2022-08-11T14:22:53.094Z,55.29
2022-08-11T14:25:19.531Z,55.38
2022-08-11T14:28:31.071Z,55.26
2022-08-11T14:30:55.339Z,55.10
2022-08-11T14:33:23.976Z,55.05
2022-08-11T14:36:06.122Z,55.05
2022-08-11T14:38:35.493Z,55.17
2022-08-11T14:41:20.706Z,54.99
2022-08-11T14:44:14.056Z,55.07
2022-08-11T14:46:59.800Z,55.22
2022-08-11T14:49:26.396Z,55.11
2022-08-11T14:51:55.020Z,55.18
2022-08-11T14:54:43.519Z,54.99
2022-08-11T14:57:09.895Z,55.30
2022-08-11T14:59:36.598Z,55.27
2022-08-11T15:02:21.651Z,55.10
2022-08-11T15:04:48.009Z,55.21
2022-08-11T15:07:17.045Z,55.27
2022-08-11T15:10:02.701Z,55.08
2022-08-11T15:12:32.766Z,55.24
2022-08-11T15:15:18.532Z,54.97
2022-08-11T15:17:45.294Z,55.20
2022-08-11T15:20:34.221Z,55.10
2022-08-11T15:23:19.113Z,54.93
2022-08-11T15:25:46.198Z,55.22
2022-08-11T15:28:31.233Z,55.16
2022-08-11T15:31:16.217Z,55.24
2022-08-11T15:34:01.871Z,54.85
2022-08-11T15:36:48.173Z,55.22
2022-08-11T15:39:20.669Z,54.95
2022-08-11T15:42:24.924Z,55.10
2022-08-11T15:45:11.545Z,55.19
2022-08-11T15:47:42.158Z,54.98
2022-08-11T15:50:13.660Z,55.18
2022-08-11T15:52:43.601Z,54.85
2022-08-11T15:55:09.970Z,55.13
2022-08-11T15:57:55.259Z,55.07
2022-08-11T16:00:40.473Z,54.95
2022-08-11T16:03:25.225Z,55.20
2022-08-11T16:06:12.869Z,55.09
2022-08-11T16:08:40.589Z,54.83
2022-08-11T16:11:08.919Z,55.04
2022-08-11T16:13:36.031Z,55.00
2022-08-11T16:16:14.419Z,54.78
2022-08-11T16:18:54.539Z,55.17
2022-08-11T16:21:33.876Z,55.05
2022-08-11T16:24:01.891Z,55.07
2022-08-11T16:27:07.585Z,55.05
2022-08-11T16:29:14.597Z,55.12
2022-08-11T16:31:40.959Z,55.06
2022-08-11T16:34:27.272Z,55.10
2022-08-11T16:37:13.051Z,55.14
2022-08-11T16:39:39.912Z,54.80
2022-08-11T16:43:00.040Z,55.03
2022-08-11T16:45:32.627Z,54.80
2022-08-11T16:48:32.510Z,54.96
2022-08-11T16:50:45.337Z,54.86
2022-08-11T16:53:11.698Z,55.07
2022-08-11T16:55:52.497Z,54.83
2022-08-11T16:58:38.186Z,54.78
2022-08-11T17:01:04.599Z,54.90
2022-08-11T17:03:49.522Z,54.73
2022-08-11T17:06:34.787Z,55.03
2022-08-11T17:09:19.891Z,54.76
2022-08-11T17:12:05.308Z,55.06
2022-08-11T17:14:40.003Z,55.07
2022-08-11T17:17:07.331Z,54.84
2022-08-11T17:20:40.018Z,55.01
2022-08-11T17:22:38.643Z,55.05
2022-08-11T17:25:05.163Z,54.93
2022-08-11T17:27:31.543Z,54.88
2022-08-11T17:29:58.188Z,54.81
2022-08-11T17:32:57.176Z,55.07
2022-08-11T17:35:32.565Z,54.89
2022-08-11T17:38:08.889Z,54.79
2022-08-11T17:40:37.054Z,54.71
2022-08-11T17:43:21.867Z,54.78
2022-08-11T17:46:08.284Z,54.78
2022-08-11T17:48:36.090Z,54.80
2022-08-11T17:51:34.698Z,55.03
2022-08-11T17:54:24.550Z,54.93
2022-08-11T17:57:20.412Z,54.67
2022-08-11T17:59:53.742Z,54.92
2022-08-11T18:02:40.275Z,55.02
2022-08-11T18:05:10.899Z,54.74
2022-08-11T18:07:59.005Z,54.77
2022-08-11T18:10:43.872Z,55.01
2022-08-11T18:13:29.151Z,54.77
2022-08-11T18:16:13.900Z,55.03
2022-08-11T18:18:58.858Z,54.85
2022-08-11T18:21:43.949Z,54.64
2022-08-11T18:24:31.996Z,54.90
2022-08-11T18:27:22.092Z,54.71
2022-08-11T18:30:07.408Z,54.65
2022-08-11T18:32:56.126Z,54.85
2022-08-11T18:35:54.409Z,54.66
2022-08-11T18:38:39.549Z,54.83
2022-08-11T18:41:24.467Z,54.58
2022-08-11T18:44:10.099Z,54.60
2022-08-11T18:46:56.834Z,52.25
2022-08-11T18:50:02.099Z,46.29
2022-08-11T18:52:47.389Z,42.77
2022-08-11T18:55:33.181Z,41.33
2022-08-11T18:58:19.175Z,40.83
2022-08-11T19:01:04.223Z,40.20
2022-08-11T19:03:49.331Z,40.31
2022-08-11T19:06:40.050Z,40.08
2022-08-11T19:09:26.460Z,39.68
2022-08-11T19:12:11.319Z,37.97
2022-08-11T19:14:56.256Z,37.61
2022-08-11T19:17:43.442Z,37.08
2022-08-11T19:20:31.155Z,36.43
2022-08-11T19:23:16.144Z,36.15
2022-08-11T19:26:04.283Z,37.44
2022-08-11T19:28:49.243Z,40.18
2022-08-11T19:31:34.599Z,40.81
2022-08-11T19:34:20.008Z,41.74
2022-08-11T19:37:04.978Z,42.29
2022-08-11T19:39:49.855Z,42.96
2022-08-11T19:42:34.990Z,43.47
2022-08-11T19:45:19.882Z,43.82
2022-08-11T19:48:28.494Z,44.31
2022-08-11T19:51:10.049Z,44.35
2022-08-11T19:53:54.839Z,44.70
2022-08-11T19:56:39.945Z,45.12
2022-08-11T19:59:25.331Z,45.06
2022-08-11T20:02:14.148Z,45.44
2022-08-11T20:04:59.864Z,45.56
2022-08-11T20:07:45.032Z,45.67
2022-08-11T20:10:29.922Z,46.12
2022-08-11T20:13:21.506Z,45.92
2022-08-11T20:16:06.662Z,46.32
2022-08-11T20:18:51.525Z,46.36
2022-08-11T20:21:36.554Z,46.82
2022-08-11T20:24:21.543Z,46.98
2022-08-11T20:27:06.390Z,47.21
2022-08-11T20:30:03.958Z,47.24
2022-08-11T20:32:49.027Z,47.37
2022-08-11T20:35:33.976Z,47.54
2022-08-11T20:38:18.860Z,47.76
2022-08-11T20:41:03.812Z,47.65
2022-08-11T20:44:08.175Z,47.96
2022-08-11T20:46:54.409Z,48.12
2022-08-11T20:49:51.446Z,47.98
2022-08-11T20:52:39.726Z,48.42
2022-08-11T20:55:45.476Z,48.38
2022-08-11T20:58:47.024Z,48.47
2022-08-11T21:04:54.859Z,48.80
2022-08-11T21:07:41.454Z,48.62
2022-08-11T21:10:26.933Z,49.03
2022-08-11T21:13:25.946Z,48.76
2022-08-11T21:16:12.461Z,48.83
2022-08-11T21:19:10.069Z,49.23
2022-08-11T21:21:55.551Z,49.40
2022-08-11T21:24:42.799Z,49.18
2022-08-11T21:27:32.155Z,49.37
2022-08-11T21:30:17.120Z,49.74
2022-08-11T21:33:02.007Z,49.85
2022-08-11T21:35:47.083Z,50.07
2022-08-11T21:38:32.344Z,50.01
2022-08-11T21:41:17.394Z,50.28
2022-08-11T21:44:02.300Z,49.89
2022-08-11T21:46:47.344Z,49.94
2022-08-11T21:49:32.126Z,50.07
2022-08-11T21:52:17.168Z,50.00
2022-08-11T21:55:02.352Z,49.96
2022-08-11T21:57:48.017Z,50.13
2022-08-11T22:00:35.563Z,50.35
2022-08-11T22:03:20.662Z,50.27
2022-08-11T22:06:06.677Z,50.32
2022-08-11T22:08:51.557Z,50.53
2022-08-11T22:11:37.715Z,50.63
2022-08-11T22:14:22.949Z,50.32
2022-08-11T22:17:08.024Z,50.84
2022-08-11T22:19:53.399Z,50.42
2022-08-11T22:22:51.931Z,50.38
2022-08-11T22:25:38.724Z,50.74
2022-08-11T22:28:24.154Z,50.94
2022-08-11T22:31:08.933Z,50.82
2022-08-11T22:34:02.655Z,50.89
2022-08-11T22:36:48.858Z,50.48
2022-08-11T22:39:35.383Z,50.62
2022-08-11T22:42:20.378Z,50.63
2022-08-11T22:45:17.887Z,50.70
2022-08-11T22:48:02.697Z,50.49
2022-08-11T22:50:47.760Z,50.52
2022-08-11T22:53:55.269Z,50.57
2022-08-11T22:56:37.668Z,50.71
2022-08-11T22:59:23.815Z,50.59
2022-08-11T23:02:08.898Z,50.45
2022-08-11T23:04:53.927Z,50.61
2022-08-11T23:07:51.242Z,50.66
2022-08-11T23:10:37.720Z,50.83
2022-08-11T23:13:22.828Z,50.80
2022-08-11T23:16:08.342Z,50.75
2022-08-11T23:18:53.214Z,50.58
2022-08-11T23:21:38.215Z,50.64
2022-08-11T23:24:23.561Z,50.73
2022-08-11T23:27:08.306Z,50.38
2022-08-11T23:29:53.446Z,50.42
2022-08-11T23:32:38.782Z,50.40
2022-08-11T23:35:38.337Z,50.72
2022-08-11T23:38:24.643Z,50.48
2022-08-11T23:41:09.516Z,50.63
2022-08-11T23:43:54.870Z,50.41
2022-08-11T23:46:39.737Z,50.75
2022-08-11T23:49:24.614Z,50.55
2022-08-11T23:52:09.364Z,50.54
2022-08-11T23:54:54.306Z,50.83
2022-08-11T23:57:47.589Z,50.55
